Chapleau Airport
CYLD : now visible

Airfield :











YOU CAN JOIN US ON...

 
LOGIN :

Register | Disclaimer

   EN    FR    IT 

 









Legend :    VFR   Marginal VFR   IFR   Intensive IFR   Very Intensive IFR
Visi :
Ceiling :
>= 8 km
>= 3000ft
5 to 8 km
1000 to 3000 ft
1500m to 5 km
500 to 1000 ft
800 to 1500m
200 to 500 ft
< 800m
< 200 ft
Symbols :   Thunderstorms  Fog  Heavy snow  Heavy precipitations  Wind > 20 kt






- Airport Elevation : 1470 ft
- IATA code : YLD


CYLD - Chapleau

CURRENT METAR :
  • 081900Z 26006G15KT 200V310 15SM BKN015 06/00 A2954 RMK SC6 SLP023

EXPIRED METARs :
  • 081853Z 26009G15KT 220V300 15SM SCT015 05/01 A2954 RMK SC4 SLP025
  • 081800Z 24007KT 210V290 15SM BKN009 OVC012 04/02 A2955 RMK SC5SC3 SLP030
  • 081700Z 25005KT 220V290 15SM BKN007 OVC015 04/03 A2956 RMK SC6SC2 SLP032
  • 081643Z 25007KT 210V290 15SM OVC010 04/03 A2956 RMK SC8 SLP033

TAF AMD TAF CYLD
Valid from the 08 at 18:00 until the 09 at 01:00 UTC


081816Z 0818/0901 25007KT P6SM OVC012
TEMPO 0818/0819 BKN008
FM081900 25010KT P6SM OVC020
TEMPO 0819/0901 OVC025 RMK NXT FCST BY 082000Z



MET'MAP, your aeronautical weather chart ! - Copyright ORBIFLY December 2007 - Disclaimer

ORBIFLY MET'MAP TEAM :

Programming & Development : Alexandra Zaïnal
Concept & original design : Baudouin d'Aumeries
Assistance for programming : Marc-Olivier Méhu
Technical & hardware support : Manuel Goepfert

Contact : metmap@orbifly.com




SOURCES & CREDITS :

   NOAA       Earth
Advisory